X  Schlie├čen METAR Luftfahrt Wetterdaten     EDVE Braunschweig-Wolfsburg Airport
Temperatur
14°C Temperatur
11°C Taupunkt
82% Feuchtigkeit



Wind
8 KM/S
5 MPS
2 M/S
4 KTS



290°
WNW
Aktuelle Wetterlage

Klar Klar
Luftdruck 1017.92 (hPa) - 30.06 (inHg)
Sichtweite 6.2 (Meile) - 10 (Km)
Flughafen
Flughafen Code EDVE

Position : Braunschweig-Wolfsburg Airport
Entfernung: 35 (Km)

Metar:
EDVE 040220Z AUTO 29004KT 9999 NCD 14/11 Q1018

Zeit: 04-07-2022 04:20 CEST